Time;durP1;ratioP1;P1;durP2;ratioP2;P2;SDS_P1;SDS_P2;PMS_P1;PMS_P2;Temp;Humidity;BMP_temperature;BMP_pressure;BME280_temperature;BME280_humidity;BME280_pressure;Samples;Min_cycle;Max_cycle;Signal;HPM_P1;HPM_P2
2022/01/04 00:00:11;;;;;;;;;;;;;;;;;;4221440;28;946;-61
2022/01/04 00:02:43;;;;;;;;;;;;;;;;;;4221302;28;1143;-61
2022/01/04 00:05:04;;;;;;;;;;;;;;;;;;4221688;28;1055;-60
2022/01/04 00:07:24;;;;;;;;;;;;;;;;;;4221256;28;1040;-60
2022/01/04 00:09:45;;;;;;;;;;;;;;;;;;4221527;28;1088;-61
2022/01/04 00:14:40;;;;;;;;;;;;;;;;;;4221639;28;1025;-61
2022/01/04 00:17:00;;;;;;;;;;;;;;;;;;4221041;28;1081;-60
2022/01/04 00:19:20;;;;;;;;;;;;;;;;;;4221431;28;1214;-60
2022/01/04 00:21:42;;;;;;;;;;;;;;;;;;4221434;28;1165;-60
2022/01/04 00:24:02;;;;;;;;;;;;;;;;;;4221178;28;1005;-61
2022/01/04 00:26:23;;;;;;;;;;;;;;;;;;4221229;28;1000;-60
2022/01/04 00:28:43;;;;;;;;;;;;;;;;;;4221103;28;1009;-60
2022/01/04 00:31:04;;;;;;;;;;;;;;;;;;4220990;28;1977;-61
2022/01/04 00:33:24;;;;;;;;;;;;;;;;;;4221614;28;836;-61
2022/01/04 00:35:45;;;;;;;;;;;;;;;;;;4221182;28;1070;-61
2022/01/04 00:38:05;;;;;;;;;;;;;;;;;;4221349;28;1139;-61
2022/01/04 00:40:26;;;;;;;;;;;;;;;;;;4221099;28;1190;-61
2022/01/04 00:42:46;;;;;;;;;;;;;;;;;;4221330;28;1230;-60
2022/01/04 00:45:06;;;;;;;;;;;;;;;;;;4221090;28;1272;-61
2022/01/04 00:47:40;;;;;;;;;;;;;;;;;;4221306;28;944;-60
2022/01/04 00:49:59;;;;;;;;;;;;;;;;;;4222912;28;942;-61
2022/01/04 00:52:20;;;;;;;;;;;;;;;;;;4224169;28;1972;-61
2022/01/04 00:54:40;;;;;;;;;;;;;;;;;;4223736;28;964;-60
2022/01/04 00:57:01;;;;;;;;;;;;;;;;;;4223680;28;1046;-60
2022/01/04 00:59:21;;;;;;;;;;;;;;;;;;4223862;28;1050;-60
2022/01/04 01:01:41;;;;;;;;;;;;;;;;;;4223980;28;1019;-61
2022/01/04 01:04:02;;;;;;;;;;;;;;;;;;4223729;28;1098;-61
2022/01/04 01:06:22;;;;;;;;;;;;;;;;;;4223937;28;985;-61
2022/01/04 01:08:42;;;;;;;;;;;;;;;;;;4223652;28;1022;-60
2022/01/04 01:11:04;;;;;;;;;;;;;;;;;;4223524;28;1910;-61
2022/01/04 01:13:24;;;;;;;;;;;;;;;;;;4223716;28;914;-61
2022/01/04 01:15:46;;;;;;;;;;;;;;;;;;4223708;28;1105;-60
2022/01/04 01:18:06;;;;;;;;;;;;;;;;;;4223655;28;1175;-61
2022/01/04 01:20:27;;;;;;;;;;;;;;;;;;4223541;28;974;-60
2022/01/04 01:22:47;;;;;;;;;;;;;;;;;;4223998;28;958;-60
2022/01/04 01:25:07;;;;;;;;;;;;;;;;;;4223799;28;1044;-61
2022/01/04 01:27:28;;;;;;;;;;;;;;;;;;4223550;28;1021;-61
2022/01/04 01:29:48;;;;;;;;;;;;;;;;;;4223303;28;1170;-60
2022/01/04 01:32:08;;;;;;;;;;;;;;;;;;4223354;28;1991;-60
2022/01/04 01:34:28;;;;;;;;;;;;;;;;;;4222176;28;1006;-61
2022/01/04 01:36:49;;;;;;;;;;;;;;;;;;4223352;28;1004;-60
2022/01/04 01:39:09;;;;;;;;;;;;;;;;;;4223602;28;929;-61
2022/01/04 01:41:29;;;;;;;;;;;;;;;;;;4223265;28;1055;-61
2022/01/04 01:43:50;;;;;;;;;;;;;;;;;;4223100;28;1403;-60
2022/01/04 01:46:10;;;;;;;;;;;;;;;;;;4223566;28;926;-60
2022/01/04 01:48:30;;;;;;;;;;;;;;;;;;4223371;28;937;-61
2022/01/04 01:50:50;;;;;;;;;;;;;;;;;;4223139;28;1905;-61
2022/01/04 01:53:10;;;;;;;;;;;;;;;;;;4223374;28;1020;-61
2022/01/04 01:55:30;;;;;;;;;;;;;;;;;;4222922;28;924;-60
2022/01/04 01:57:51;;;;;;;;;;;;;;;;;;4222308;28;1027;-61
2022/01/04 02:03:39;;;;;;;;;;;;;;;;;;4223514;28;788;-60
2022/01/04 02:06:00;;;;;;;;;;;;;;;;;;4222267;28;1097;-60
2022/01/04 02:08:20;;;;;;;;;;;;;;;;;;4222328;28;951;-61
2022/01/04 02:10:40;;;;;;;;;;;;;;;;;;4222456;28;1277;-61
2022/01/04 02:13:01;;;;;;;;;;;;;;;;;;4222452;28;991;-61
2022/01/04 02:15:21;;;;;;;;;;;;;;;;;;4222470;28;1315;-60
2022/01/04 02:17:41;;;;;;;;;;;;;;;;;;4221904;28;1398;-61
2022/01/04 02:20:01;;;;;;;;;;;;;;;;;;4220674;28;1260;-60
2022/01/04 02:22:21;;;;;;;;;;;;;;;;;;4222576;28;1254;-61
2022/01/04 02:24:42;;;;;;;;;;;;;;;;;;4222079;28;976;-61
2022/01/04 02:27:03;;;;;;;;;;;;;;;;;;4222362;28;948;-60
2022/01/04 02:29:23;;;;;;;;;;;;;;;;;;4221801;28;1038;-62
2022/01/04 02:31:44;;;;;;;;;;;;;;;;;;4222385;28;1910;-61
2022/01/04 02:34:04;;;;;;;;;;;;;;;;;;4222294;28;1497;-61
2022/01/04 02:36:24;;;;;;;;;;;;;;;;;;4222134;28;1150;-61
2022/01/04 02:38:44;;;;;;;;;;;;;;;;;;4222405;28;1231;-60
2022/01/04 02:41:05;;;;;;;;;;;;;;;;;;4222684;28;935;-60
2022/01/04 02:43:25;;;;;;;;;;;;;;;;;;4222213;28;998;-61
2022/01/04 02:45:45;;;;;;;;;;;;;;;;;;4222405;28;1314;-60
2022/01/04 02:48:06;;;;;;;;;;;;;;;;;;4222614;28;1059;-61
2022/01/04 02:50:26;;;;;;;;;;;;;;;;;;4222451;28;1026;-60
2022/01/04 02:52:46;;;;;;;;;;;;;;;;;;4222537;28;1905;-61
2022/01/04 02:55:07;;;;;;;;;;;;;;;;;;4222222;28;925;-60
2022/01/04 02:57:27;;;;;;;;;;;;;;;;;;4222508;28;818;-60
2022/01/04 02:59:47;;;;;;;;;;;;;;;;;;4222389;28;925;-61
2022/01/04 03:02:07;;;;;;;;;;;;;;;;;;4222434;28;960;-61
2022/01/04 03:04:28;;;;;;;;;;;;;;;;;;4222207;28;945;-61
2022/01/04 03:06:48;;;;;;;;;;;;;;;;;;4222268;28;852;-61
2022/01/04 03:09:08;;;;;;;;;;;;;;;;;;4222035;28;939;-60
2022/01/04 03:11:28;;;;;;;;;;;;;;;;;;4221621;28;1983;-60
2022/01/04 03:13:49;;;;;;;;;;;;;;;;;;4221800;28;1057;-61
2022/01/04 03:16:09;;;;;;;;;;;;;;;;;;4221957;28;987;-61
2022/01/04 03:18:29;;;;;;;;;;;;;;;;;;4222286;28;1105;-61
2022/01/04 03:20:50;;;;;;;;;;;;;;;;;;4221690;28;1036;-61
2022/01/04 03:23:10;;;;;;;;;;;;;;;;;;4221983;28;1123;-60
2022/01/04 03:25:31;;;;;;;;;;;;;;;;;;4222157;28;1008;-61
2022/01/04 03:27:51;;;;;;;;;;;;;;;;;;4222054;28;915;-61
2022/01/04 03:30:11;;;;;;;;;;;;;;;;;;4222255;28;925;-60
2022/01/04 03:32:32;;;;;;;;;;;;;;;;;;4221985;28;1978;-61
2022/01/04 03:34:52;;;;;;;;;;;;;;;;;;4221689;28;1193;-61
2022/01/04 03:37:12;;;;;;;;;;;;;;;;;;4221603;28;1020;-61
2022/01/04 03:39:33;;;;;;;;;;;;;;;;;;4221529;28;1070;-60
2022/01/04 03:41:53;;;;;;;;;;;;;;;;;;4221786;28;1275;-61
2022/01/04 03:44:18;;;;;;;;;;;;;;;;;;4221395;28;992;-61
2022/01/04 03:46:38;;;;;;;;;;;;;;;;;;4222035;28;1006;-61
2022/01/04 03:48:59;;;;;;;;;;;;;;;;;;4221842;28;934;-60
2022/01/04 03:51:19;;;;;;;;;;;;;;;;;;4221378;28;1008;-60
2022/01/04 03:53:39;;;;;;;;;;;;;;;;;;4221653;28;820;-61
2022/01/04 03:55:59;;;;;;;;;;;;;;;;;;4221499;28;1012;-61
2022/01/04 03:58:19;;;;;;;;;;;;;;;;;;4221125;28;968;-61
2022/01/04 04:00:40;;;;;;;;;;;;;;;;;;4221447;28;983;-61
2022/01/04 04:03:00;;;;;;;;;;;;;;;;;;4221791;28;961;-60
2022/01/04 04:05:20;;;;;;;;;;;;;;;;;;4221512;28;1038;-60
2022/01/04 04:07:41;;;;;;;;;;;;;;;;;;4221366;28;1114;-61
2022/01/04 04:10:01;;;;;;;;;;;;;;;;;;4221703;28;927;-60
2022/01/04 04:12:23;;;;;;;;;;;;;;;;;;4221358;28;1914;-60
2022/01/04 04:14:43;;;;;;;;;;;;;;;;;;4221590;28;834;-60
2022/01/04 04:17:03;;;;;;;;;;;;;;;;;;4221472;28;1233;-60
2022/01/04 04:19:24;;;;;;;;;;;;;;;;;;4221231;28;1044;-60
2022/01/04 04:21:44;;;;;;;;;;;;;;;;;;4221186;28;946;-60
2022/01/04 04:24:05;;;;;;;;;;;;;;;;;;4222153;28;1009;-61
2022/01/04 04:26:25;;;;;;;;;;;;;;;;;;4224344;28;1024;-61
2022/01/04 04:28:45;;;;;;;;;;;;;;;;;;4224411;28;1109;-61
2022/01/04 04:31:06;;;;;;;;;;;;;;;;;;4224554;28;922;-61
2022/01/04 04:33:27;;;;;;;;;;;;;;;;;;4224157;28;1906;-60
2022/01/04 04:35:47;;;;;;;;;;;;;;;;;;4223902;28;973;-61
2022/01/04 04:38:07;;;;;;;;;;;;;;;;;;4224014;28;1023;-61
2022/01/04 04:40:27;;;;;;;;;;;;;;;;;;4224459;28;1065;-60
2022/01/04 04:42:48;;;;;;;;;;;;;;;;;;4224342;28;1024;-61
2022/01/04 04:45:08;;;;;;;;;;;;;;;;;;4223670;28;997;-61
2022/01/04 04:47:28;;;;;;;;;;;;;;;;;;4223805;28;902;-61
2022/01/04 04:49:49;;;;;;;;;;;;;;;;;;4223986;28;991;-61
2022/01/04 04:52:10;;;;;;;;;;;;;;;;;;4223994;28;1905;-60
2022/01/04 04:54:30;;;;;;;;;;;;;;;;;;4223847;28;1004;-61
2022/01/04 04:56:50;;;;;;;;;;;;;;;;;;4223940;28;1149;-61
2022/01/04 04:59:11;;;;;;;;;;;;;;;;;;4224118;28;1043;-61
2022/01/04 05:01:31;;;;;;;;;;;;;;;;;;4223710;28;1213;-61
2022/01/04 05:03:52;;;;;;;;;;;;;;;;;;4224045;28;852;-60
2022/01/04 05:06:13;;;;;;;;;;;;;;;;;;4223398;28;1020;-60
2022/01/04 05:08:33;;;;;;;;;;;;;;;;;;4216647;28;2034;-61
2022/01/04 05:10:53;;;;;;;;;;;;;;;;;;4206809;28;937;-60
2022/01/04 05:13:14;;;;;;;;;;;;;;;;;;4212906;28;1905;-61
2022/01/04 05:15:34;;;;;;;;;;;;;;;;;;4223814;28;1113;-61
2022/01/04 05:17:54;;;;;;;;;;;;;;;;;;4222849;28;1292;-60
2022/01/04 05:20:15;;;;;;;;;;;;;;;;;;4222233;28;1181;-61
2022/01/04 05:22:35;;;;;;;;;;;;;;;;;;4222582;28;1001;-61
2022/01/04 05:24:56;;;;;;;;;;;;;;;;;;4207698;28;1046;-61
2022/01/04 05:27:16;;;;;;;;;;;;;;;;;;4222456;28;1011;-61
2022/01/04 05:29:36;;;;;;;;;;;;;;;;;;4222514;28;1174;-61
2022/01/04 05:31:56;;;;;;;;;;;;;;;;;;4222763;28;1202;-60
2022/01/04 05:34:16;;;;;;;;;;;;;;;;;;4222321;28;1245;-60
2022/01/04 05:36:37;;;;;;;;;;;;;;;;;;4222153;28;1191;-61
2022/01/04 05:38:57;;;;;;;;;;;;;;;;;;4222247;28;965;-60
2022/01/04 05:41:17;;;;;;;;;;;;;;;;;;4222288;28;1169;-61
2022/01/04 05:43:37;;;;;;;;;;;;;;;;;;4222500;28;826;-61
2022/01/04 05:45:57;;;;;;;;;;;;;;;;;;4222216;28;1049;-60
2022/01/04 05:48:20;;;;;;;;;;;;;;;;;;4222629;28;1200;-60
2022/01/04 05:50:42;;;;;;;;;;;;;;;;;;4222320;28;829;-61
2022/01/04 05:53:03;;;;;;;;;;;;;;;;;;4221849;28;1984;-61
2022/01/04 05:55:23;;;;;;;;;;;;;;;;;;4207018;28;1113;-61
2022/01/04 05:57:43;;;;;;;;;;;;;;;;;;4221973;28;996;-60
2022/01/04 06:00:03;;;;;;;;;;;;;;;;;;4222315;28;953;-61
2022/01/04 06:02:29;;;;;;;;;;;;;;;;;;4221847;28;1050;-61
2022/01/04 06:04:49;;;;;;;;;;;;;;;;;;4221896;28;1033;-61
2022/01/04 06:07:09;;;;;;;;;;;;;;;;;;4221837;28;1152;-61
2022/01/04 06:09:40;;;;;;;;;;;;;;;;;;4222230;28;922;-60
2022/01/04 06:12:02;;;;;;;;;;;;;;;;;;4222295;28;1327;-61
2022/01/04 06:17:01;;;;;;;;;;;;;;;;;;4182811;28;1120711;-61
2022/01/04 06:19:21;;;;;;;;;;;;;;;;;;4222573;28;954;-60
2022/01/04 06:21:41;;;;;;;;;;;;;;;;;;4222593;28;1162;-61
2022/01/04 06:24:01;;;;;;;;;;;;;;;;;;4223224;28;962;-62
2022/01/04 06:26:22;;;;;;;;;;;;;;;;;;4222945;28;830;-60
2022/01/04 06:28:42;;;;;;;;;;;;;;;;;;4222620;28;965;-60
2022/01/04 06:31:03;;;;;;;;;;;;;;;;;;4222425;28;1004;-61
2022/01/04 06:33:23;;;;;;;;;;;;;;;;;;4222233;28;1905;-61
2022/01/04 06:35:43;;;;;;;;;;;;;;;;;;4222440;28;974;-61
2022/01/04 06:38:03;;;;;;;;;;;;;;;;;;4204435;28;951;-61
2022/01/04 06:40:24;;;;;;;;;;;;;;;;;;4222857;28;1112;-61
2022/01/04 06:42:44;;;;;;;;;;;;;;;;;;4222685;28;942;-61
2022/01/04 06:45:04;;;;;;;;;;;;;;;;;;4218754;28;1026;-61
2022/01/04 06:47:24;;;;;;;;;;;;;;;;;;4221358;28;912;-60
2022/01/04 06:49:45;;;;;;;;;;;;;;;;;;4222075;28;919;-61
2022/01/04 06:52:05;;;;;;;;;;;;;;;;;;4221403;28;1000;-61
2022/01/04 06:54:26;;;;;;;;;;;;;;;;;;4222134;28;1910;-61
2022/01/04 06:56:46;;;;;;;;;;;;;;;;;;4222314;28;846;-60
2022/01/04 06:59:07;;;;;;;;;;;;;;;;;;4221623;28;939;-60
2022/01/04 07:01:27;;;;;;;;;;;;;;;;;;4221982;28;834;-61
2022/01/04 07:03:47;;;;;;;;;;;;;;;;;;4222142;28;826;-60
2022/01/04 07:06:07;;;;;;;;;;;;;;;;;;4221183;28;1397;-60
2022/01/04 07:08:28;;;;;;;;;;;;;;;;;;4222179;28;873;-59
2022/01/04 07:10:48;;;;;;;;;;;;;;;;;;4221822;28;1158;-59
2022/01/04 07:13:08;;;;;;;;;;;;;;;;;;4221553;28;1976;-59
2022/01/04 07:15:29;;;;;;;;;;;;;;;;;;4221611;28;1126;-60
2022/01/04 07:17:49;;;;;;;;;;;;;;;;;;4221516;28;1378;-59
2022/01/04 07:20:09;;;;;;;;;;;;;;;;;;4221373;28;1233;-59
2022/01/04 07:22:30;;;;;;;;;;;;;;;;;;4221119;28;1479;-59
2022/01/04 07:24:50;;;;;;;;;;;;;;;;;;4220947;28;1169;-59
2022/01/04 07:27:10;;;;;;;;;;;;;;;;;;4221785;28;829;-59
2022/01/04 07:29:30;;;;;;;;;;;;;;;;;;4221043;28;996;-59
2022/01/04 07:31:51;;;;;;;;;;;;;;;;;;4221831;28;1013;-58
2022/01/04 07:34:11;;;;;;;;;;;;;;;;;;4221185;28;1976;-58
2022/01/04 07:36:32;;;;;;;;;;;;;;;;;;4220948;28;981;-60
2022/01/04 07:38:52;;;;;;;;;;;;;;;;;;4221334;28;1047;-59
2022/01/04 07:41:13;;;;;;;;;;;;;;;;;;4217999;28;1977;-59
2022/01/04 07:43:33;;;;;;;;;;;;;;;;;;4219527;28;1641;-60
2022/01/04 07:45:53;;;;;;;;;;;;;;;;;;4220061;28;1634;-59
2022/01/04 07:48:14;;;;;;;;;;;;;;;;;;4220035;28;1694;-59
2022/01/04 07:50:34;;;;;;;;;;;;;;;;;;4219451;28;1972;-59
2022/01/04 07:52:54;;;;;;;;;;;;;;;;;;4220205;28;1597;-59
2022/01/04 07:55:15;;;;;;;;;;;;;;;;;;4217993;28;1769;-60
2022/01/04 07:57:44;;;;;;;;;;;;;;;;;;4220353;28;1480;-60
2022/01/04 08:00:10;;;;;;;;;;;;;;;;;;4218752;28;1852;-60
2022/01/04 08:02:38;;;;;;;;;;;;;;;;;;4220626;28;1259;-58
2022/01/04 08:04:59;;;;;;;;;;;;;;;;;;4216393;28;3026;-59
2022/01/04 08:07:19;;;;;;;;;;;;;;;;;;4212546;28;1470;-59
2022/01/04 08:09:41;;;;;;;;;;;;;;;;;;4222328;28;1411;-62
2022/01/04 08:12:01;;;;;;;;;;;;;;;;;;4221037;28;1001;-59
2022/01/04 08:14:21;;;;;;;;;;;;;;;;;;4218875;28;1988;-59
2022/01/04 08:16:42;;;;;;;;;;;;;;;;;;4206208;28;1153;-60
2022/01/04 08:19:02;;;;;;;;;;;;;;;;;;4204084;28;1013;-59
2022/01/04 08:21:23;;;;;;;;;;;;;;;;;;4203789;28;1221;-60
2022/01/04 08:23:43;;;;;;;;;;;;;;;;;;4204099;28;970;-59
2022/01/04 08:26:03;;;;;;;;;;;;;;;;;;4206088;28;3352;-60
2022/01/04 08:28:24;;;;;;;;;;;;;;;;;;4214261;28;1183;-62
2022/01/04 08:30:45;;;;;;;;;;;;;;;;;;4204358;28;1215;-60
2022/01/04 08:33:05;;;;;;;;;;;;;;;;;;4204446;28;1388;-61
2022/01/04 08:35:25;;;;;;;;;;;;;;;;;;4204688;28;2123;-61
2022/01/04 08:37:46;;;;;;;;;;;;;;;;;;4219201;28;2713;-60
2022/01/04 08:40:06;;;;;;;;;;;;;;;;;;4221052;28;935;-61
2022/01/04 08:42:27;;;;;;;;;;;;;;;;;;4214892;28;999;-61
2022/01/04 08:44:47;;;;;;;;;;;;;;;;;;4204561;28;1034;-61
2022/01/04 08:47:07;;;;;;;;;;;;;;;;;;4204402;28;989;-60
2022/01/04 08:49:30;;;;;;;;;;;;;;;;;;4204269;28;1005;-60
2022/01/04 08:51:50;;;;;;;;;;;;;;;;;;4204387;28;1095;-61
2022/01/04 08:54:10;;;;;;;;;;;;;;;;;;4204132;28;1911;-61
2022/01/04 08:56:31;;;;;;;;;;;;;;;;;;4218426;28;2207;-60
2022/01/04 08:58:51;;;;;;;;;;;;;;;;;;4220692;28;1237;-61
2022/01/04 09:01:12;;;;;;;;;;;;;;;;;;4221394;28;924;-60
2022/01/04 09:03:33;;;;;;;;;;;;;;;;;;4214820;28;2302;-61
2022/01/04 09:05:54;;;;;;;;;;;;;;;;;;4217491;28;1494;-61
2022/01/04 09:08:14;;;;;;;;;;;;;;;;;;4220063;28;2027;-61
2022/01/04 09:10:34;;;;;;;;;;;;;;;;;;4205540;28;960;-61
2022/01/04 09:13:00;;;;;;;;;;;;;;;;;;4216390;28;1713;-61
2022/01/04 09:15:56;;;;;;;;;;;;;;;;;;4216859;28;1982;-62
2022/01/04 09:20:54;;;;;;;;;;;;;;;;;;4206723;28;986;-61
2022/01/04 09:23:15;;;;;;;;;;;;;;;;;;4206070;28;2260;-61
2022/01/04 09:25:36;;;;;;;;;;;;;;;;;;4215430;28;2564;-61
2022/01/04 09:27:57;;;;;;;;;;;;;;;;;;4213044;28;1047;-61
2022/01/04 09:30:17;;;;;;;;;;;;;;;;;;4206622;28;1319;-61
2022/01/04 09:32:38;;;;;;;;;;;;;;;;;;4206940;28;1113;-62
2022/01/04 09:34:59;;;;;;;;;;;;;;;;;;4217072;28;1914;-60
2022/01/04 09:37:19;;;;;;;;;;;;;;;;;;4221623;28;1780;-62
2022/01/04 09:39:39;;;;;;;;;;;;;;;;;;4221940;28;2146;-62
2022/01/04 09:42:00;;;;;;;;;;;;;;;;;;4220610;28;2393;-62
2022/01/04 09:44:22;;;;;;;;;;;;;;;;;;4222925;28;1896;-61
2022/01/04 09:46:42;;;;;;;;;;;;;;;;;;4211954;28;3202;-62
2022/01/04 09:49:03;;;;;;;;;;;;;;;;;;4213468;28;1855;-63
2022/01/04 09:51:23;;;;;;;;;;;;;;;;;;4209002;28;1583;-62
2022/01/04 09:53:44;;;;;;;;;;;;;;;;;;4222865;28;1178;-62
2022/01/04 09:56:04;;;;;;;;;;;;;;;;;;4223270;28;1006;-63
2022/01/04 09:58:24;;;;;;;;;;;;;;;;;;4213503;28;2268;-62
2022/01/04 10:00:45;;;;;;;;;;;;;;;;;;4216758;28;1203;-62
2022/01/04 10:03:05;;;;;;;;;;;;;;;;;;4219304;28;1481;-62
2022/01/04 10:05:27;;;;;;;;;;;;;;;;;;4214327;28;1301;-62
2022/01/04 10:07:48;;;;;;;;;;;;;;;;;;4222786;28;1037;-62
2022/01/04 10:10:08;;;;;;;;;;;;;;;;;;4222343;28;1161;-61
2022/01/04 10:12:33;;;;;;;;;;;;;;;;;;4222854;28;1005;-61
2022/01/04 10:15:00;;;;;;;;;;;;;;;;;;4220387;28;1979;-61
2022/01/04 10:17:20;;;;;;;;;;;;;;;;;;4222365;28;1218;-62
2022/01/04 10:19:41;;;;;;;;;;;;;;;;;;4222729;28;1025;-61
2022/01/04 10:22:01;;;;;;;;;;;;;;;;;;4221018;28;1212;-61
2022/01/04 10:24:21;;;;;;;;;;;;;;;;;;4206436;28;2482;-61
2022/01/04 10:26:42;;;;;;;;;;;;;;;;;;4205439;28;1095;-61
2022/01/04 10:29:03;;;;;;;;;;;;;;;;;;4205410;28;1235;-61
2022/01/04 10:31:23;;;;;;;;;;;;;;;;;;4204946;28;997;-62
2022/01/04 10:33:43;;;;;;;;;;;;;;;;;;4205761;28;849;-61
2022/01/04 10:36:08;;;;;;;;;;;;;;;;;;4205414;28;1969;-61
2022/01/04 10:38:29;;;;;;;;;;;;;;;;;;4205003;28;1133;-61
2022/01/04 10:40:49;;;;;;;;;;;;;;;;;;4205653;28;1024;-61
2022/01/04 10:43:09;;;;;;;;;;;;;;;;;;4205296;28;998;-61
2022/01/04 10:45:29;;;;;;;;;;;;;;;;;;4205336;28;998;-59
2022/01/04 10:47:50;;;;;;;;;;;;;;;;;;4205075;28;934;-62
2022/01/04 10:50:10;;;;;;;;;;;;;;;;;;4205818;28;1030;-62
2022/01/04 10:52:30;;;;;;;;;;;;;;;;;;4205284;28;999;-62
2022/01/04 10:54:51;;;;;;;;;;;;;;;;;;4219639;28;1952;-62
2022/01/04 10:57:12;;;;;;;;;;;;;;;;;;4221967;28;987;-64
2022/01/04 10:59:32;;;;;;;;;;;;;;;;;;4238719;28;1308;-62
2022/01/04 11:01:52;;;;;;;;;;;;;;;;;;4238815;28;1023;-62
2022/01/04 11:04:14;;;;;;;;;;;;;;;;;;4238438;28;1150;-63
2022/01/04 11:06:34;;;;;;;;;;;;;;;;;;4238897;28;1195;-63
2022/01/04 11:08:54;;;;;;;;;;;;;;;;;;4239316;28;839;-63
2022/01/04 11:11:14;;;;;;;;;;;;;;;;;;4238908;28;1046;-62
2022/01/04 11:13:35;;;;;;;;;;;;;;;;;;4238816;28;933;-63
2022/01/04 11:15:55;;;;;;;;;;;;;;;;;;4238869;28;1978;-63
2022/01/04 11:18:15;;;;;;;;;;;;;;;;;;4239168;28;1243;-64
2022/01/04 11:20:35;;;;;;;;;;;;;;;;;;4239302;28;919;-64
2022/01/04 11:22:55;;;;;;;;;;;;;;;;;;4238704;28;1158;-63
2022/01/04 11:25:16;;;;;;;;;;;;;;;;;;4238615;28;1282;-64
2022/01/04 11:27:36;;;;;;;;;;;;;;;;;;4239114;28;983;-64
2022/01/04 11:29:58;;;;;;;;;;;;;;;;;;4239036;28;930;-63
2022/01/04 11:32:18;;;;;;;;;;;;;;;;;;4239152;28;933;-63
2022/01/04 11:34:39;;;;;;;;;;;;;;;;;;4223459;28;1902;-64
2022/01/04 11:36:59;;;;;;;;;;;;;;;;;;4238998;28;949;-64
2022/01/04 11:39:19;;;;;;;;;;;;;;;;;;4238785;28;1198;-64
2022/01/04 11:41:40;;;;;;;;;;;;;;;;;;4238758;28;1045;-65
2022/01/04 11:44:00;;;;;;;;;;;;;;;;;;4238700;28;1056;-65
2022/01/04 11:46:20;;;;;;;;;;;;;;;;;;4238535;28;1008;-65
2022/01/04 11:48:41;;;;;;;;;;;;;;;;;;4238768;28;1166;-65
2022/01/04 11:51:02;;;;;;;;;;;;;;;;;;4238599;28;1041;-63
2022/01/04 11:53:22;;;;;;;;;;;;;;;;;;4238689;28;1135;-63
2022/01/04 11:55:43;;;;;;;;;;;;;;;;;;4238333;28;1925;-64
2022/01/04 11:58:03;;;;;;;;;;;;;;;;;;4238524;28;1007;-64
2022/01/04 12:00:23;;;;;;;;;;;;;;;;;;4238050;28;989;-63
2022/01/04 12:02:46;;;;;;;;;;;;;;;;;;4238754;28;824;-64
2022/01/04 12:05:06;;;;;;;;;;;;;;;;;;4238309;28;1155;-64
2022/01/04 12:07:26;;;;;;;;;;;;;;;;;;4237913;28;1248;-63
2022/01/04 12:09:47;;;;;;;;;;;;;;;;;;4238084;28;1505;-63
2022/01/04 12:12:07;;;;;;;;;;;;;;;;;;4222351;28;1162;-63
2022/01/04 12:14:28;;;;;;;;;;;;;;;;;;4237893;28;1025;-63
2022/01/04 12:16:49;;;;;;;;;;;;;;;;;;4237987;28;1302;-63
2022/01/04 12:19:09;;;;;;;;;;;;;;;;;;4237934;28;1107;-63
2022/01/04 12:21:29;;;;;;;;;;;;;;;;;;4237566;28;988;-63
2022/01/04 12:23:50;;;;;;;;;;;;;;;;;;4238081;28;1145;-63
2022/01/04 12:26:12;;;;;;;;;;;;;;;;;;4237980;28;926;-64
2022/01/04 12:28:32;;;;;;;;;;;;;;;;;;4237521;28;1239;-64
2022/01/04 12:30:52;;;;;;;;;;;;;;;;;;4238231;28;853;-63
2022/01/04 12:33:12;;;;;;;;;;;;;;;;;;4237900;28;1155;-64
2022/01/04 12:35:33;;;;;;;;;;;;;;;;;;4237654;28;1980;-64
2022/01/04 12:37:54;;;;;;;;;;;;;;;;;;4238151;28;956;-63
2022/01/04 12:40:15;;;;;;;;;;;;;;;;;;4237757;28;961;-63
2022/01/04 12:42:35;;;;;;;;;;;;;;;;;;4237715;28;1231;-63
2022/01/04 12:44:56;;;;;;;;;;;;;;;;;;4231319;28;2028;-63
2022/01/04 12:47:18;;;;;;;;;;;;;;;;;;4211803;28;1321;-63
2022/01/04 12:49:38;;;;;;;;;;;;;;;;;;4236768;28;1012;-63
2022/01/04 12:51:59;;;;;;;;;;;;;;;;;;4227322;28;1698;-63
2022/01/04 12:54:20;;;;;;;;;;;;;;;;;;4221819;28;962;-63
2022/01/04 12:56:40;;;;;;;;;;;;;;;;;;4221577;28;1972;-63
2022/01/04 12:59:00;;;;;;;;;;;;;;;;;;4221688;28;1057;-63
2022/01/04 13:01:20;;;;;;;;;;;;;;;;;;4222641;28;1016;-63
2022/01/04 13:03:41;;;;;;;;;;;;;;;;;;4222220;28;1375;-64
2022/01/04 13:06:03;;;;;;;;;;;;;;;;;;4222222;28;966;-63
2022/01/04 13:08:24;;;;;;;;;;;;;;;;;;4222230;28;1036;-63
2022/01/04 13:10:44;;;;;;;;;;;;;;;;;;4219801;28;1402;-63
2022/01/04 13:13:04;;;;;;;;;;;;;;;;;;4222315;28;874;-63
2022/01/04 13:15:26;;;;;;;;;;;;;;;;;;4221616;28;1975;-64
2022/01/04 13:17:47;;;;;;;;;;;;;;;;;;4221980;28;1330;-63
2022/01/04 13:20:07;;;;;;;;;;;;;;;;;;4222577;28;988;-63
2022/01/04 13:22:27;;;;;;;;;;;;;;;;;;4221781;28;972;-63
2022/01/04 13:24:47;;;;;;;;;;;;;;;;;;4221910;28;1249;-63
2022/01/04 13:27:08;;;;;;;;;;;;;;;;;;4222009;28;988;-63
2022/01/04 13:29:30;;;;;;;;;;;;;;;;;;4221921;28;875;-63
2022/01/04 13:31:51;;;;;;;;;;;;;;;;;;4222269;28;876;-63
2022/01/04 13:34:11;;;;;;;;;;;;;;;;;;4221835;28;960;-63
2022/01/04 13:36:33;;;;;;;;;;;;;;;;;;4221774;28;1906;-63
2022/01/04 13:38:55;;;;;;;;;;;;;;;;;;4222072;28;833;-63
2022/01/04 13:41:15;;;;;;;;;;;;;;;;;;4221385;28;1213;-63
2022/01/04 13:43:38;;;;;;;;;;;;;;;;;;4234655;28;1166;-61
2022/01/04 13:45:58;;;;;;;;;;;;;;;;;;4227750;27;1948;-62
2022/01/04 13:48:18;;;;;;;;;;;;;;;;;;4214791;28;986;-61
2022/01/04 13:50:39;;;;;;;;;;;;;;;;;;4222060;28;1200;-61
2022/01/04 13:52:59;;;;;;;;;;;;;;;;;;4221756;28;996;-61
2022/01/04 13:55:20;;;;;;;;;;;;;;;;;;4222699;28;1754;-60
2022/01/04 13:57:40;;;;;;;;;;;;;;;;;;4216264;28;930;-62
2022/01/04 14:00:01;;;;;;;;;;;;;;;;;;4217264;28;969;-62
2022/01/04 14:02:21;;;;;;;;;;;;;;;;;;4208157;28;2017;-61
2022/01/04 14:04:41;;;;;;;;;;;;;;;;;;4221706;28;2093;-61
2022/01/04 14:07:03;;;;;;;;;;;;;;;;;;4213544;28;1807;-62
2022/01/04 14:09:23;;;;;;;;;;;;;;;;;;4205854;28;994;-61
2022/01/04 14:11:44;;;;;;;;;;;;;;;;;;4217413;28;1313;-61
2022/01/04 14:14:05;;;;;;;;;;;;;;;;;;4222801;28;1175;-61
2022/01/04 14:16:25;;;;;;;;;;;;;;;;;;4222454;28;1909;-61
2022/01/04 14:18:45;;;;;;;;;;;;;;;;;;4222591;28;1024;-61
2022/01/04 14:21:05;;;;;;;;;;;;;;;;;;4222453;28;1225;-62
2022/01/04 14:23:26;;;;;;;;;;;;;;;;;;4222825;28;945;-61
2022/01/04 14:25:46;;;;;;;;;;;;;;;;;;4223107;28;961;-62
2022/01/04 14:28:06;;;;;;;;;;;;;;;;;;4223011;28;1066;-61
2022/01/04 14:30:28;;;;;;;;;;;;;;;;;;4222935;28;867;-62
2022/01/04 14:32:48;;;;;;;;;;;;;;;;;;4222831;28;1088;-62
2022/01/04 14:35:08;;;;;;;;;;;;;;;;;;4216247;28;3097;-61
2022/01/04 14:37:29;;;;;;;;;;;;;;;;;;4218443;28;1988;-62
2022/01/04 14:39:49;;;;;;;;;;;;;;;;;;4222783;28;1068;-62
2022/01/04 14:42:09;;;;;;;;;;;;;;;;;;4222721;28;1110;-61
2022/01/04 14:44:30;;;;;;;;;;;;;;;;;;4220146;28;3232;-62
2022/01/04 14:46:50;;;;;;;;;;;;;;;;;;4220814;28;942;-61
2022/01/04 14:49:10;;;;;;;;;;;;;;;;;;4222780;28;1235;-61
2022/01/04 14:51:30;;;;;;;;;;;;;;;;;;4223176;28;1016;-60
2022/01/04 14:53:50;;;;;;;;;;;;;;;;;;4223614;28;833;-60
2022/01/04 14:56:11;;;;;;;;;;;;;;;;;;4223467;28;1905;-61
2022/01/04 14:58:31;;;;;;;;;;;;;;;;;;4214691;28;1263;-61
2022/01/04 15:00:52;;;;;;;;;;;;;;;;;;4222922;28;1026;-60
2022/01/04 15:03:13;;;;;;;;;;;;;;;;;;4223206;28;1004;-60
2022/01/04 15:05:33;;;;;;;;;;;;;;;;;;4223123;28;1136;-61
2022/01/04 15:07:53;;;;;;;;;;;;;;;;;;4219692;28;1878;-61
2022/01/04 15:10:14;;;;;;;;;;;;;;;;;;4223292;28;1219;-61
2022/01/04 15:12:34;;;;;;;;;;;;;;;;;;4223446;28;1156;-61
2022/01/04 15:14:54;;;;;;;;;;;;;;;;;;4220148;28;1199;-62
2022/01/04 15:17:15;;;;;;;;;;;;;;;;;;4227839;28;1907;-61
2022/01/04 15:19:35;;;;;;;;;;;;;;;;;;4232415;28;1176;-61
2022/01/04 15:21:55;;;;;;;;;;;;;;;;;;4222874;28;1015;-62
2022/01/04 15:24:17;;;;;;;;;;;;;;;;;;4219271;28;1650;-60
2022/01/04 15:26:38;;;;;;;;;;;;;;;;;;4216880;28;1757;-61
2022/01/04 15:28:58;;;;;;;;;;;;;;;;;;4222940;28;1008;-61
2022/01/04 15:31:18;;;;;;;;;;;;;;;;;;4222896;28;988;-61
2022/01/04 15:33:38;;;;;;;;;;;;;;;;;;4206426;28;978;-60
2022/01/04 15:35:59;;;;;;;;;;;;;;;;;;4206255;28;836;-61
2022/01/04 15:38:20;;;;;;;;;;;;;;;;;;4217644;28;946;-61
2022/01/04 15:40:41;;;;;;;;;;;;;;;;;;4222961;28;840;-61
2022/01/04 15:43:01;;;;;;;;;;;;;;;;;;4222497;28;946;-61
2022/01/04 15:45:21;;;;;;;;;;;;;;;;;;4222896;28;1058;-61
2022/01/04 15:47:41;;;;;;;;;;;;;;;;;;4222526;28;1066;-60
2022/01/04 15:50:02;;;;;;;;;;;;;;;;;;4222583;28;1004;-61
2022/01/04 15:52:23;;;;;;;;;;;;;;;;;;4222683;28;976;-61
2022/01/04 15:54:43;;;;;;;;;;;;;;;;;;4222467;28;1029;-61
2022/01/04 15:57:03;;;;;;;;;;;;;;;;;;4222819;28;1988;-61
2022/01/04 15:59:24;;;;;;;;;;;;;;;;;;4222600;28;1082;-61
2022/01/04 16:01:44;;;;;;;;;;;;;;;;;;4207184;28;1039;-61
2022/01/04 16:04:05;;;;;;;;;;;;;;;;;;4205995;28;1080;-61
2022/01/04 16:06:25;;;;;;;;;;;;;;;;;;4205532;28;1380;-61
2022/01/04 16:08:46;;;;;;;;;;;;;;;;;;4220764;28;1108;-60
2022/01/04 16:11:06;;;;;;;;;;;;;;;;;;4222238;28;941;-61
2022/01/04 16:13:27;;;;;;;;;;;;;;;;;;4222145;28;1150;-60
2022/01/04 16:15:54;;;;;;;;;;;;;;;;;;4222137;28;947;-60
2022/01/04 16:18:30;;;;;;;;;;;;;;;;;;4222194;28;1906;-61
2022/01/04 16:23:29;;;;;;;;;;;;;;;;;;4225317;28;1050;-60
2022/01/04 16:25:49;;;;;;;;;;;;;;;;;;4225205;28;1004;-60
2022/01/04 16:28:09;;;;;;;;;;;;;;;;;;4225237;28;1160;-60
2022/01/04 16:30:29;;;;;;;;;;;;;;;;;;4225377;28;1081;-60
2022/01/04 16:32:49;;;;;;;;;;;;;;;;;;4225384;28;1101;-60
2022/01/04 16:35:10;;;;;;;;;;;;;;;;;;4225391;28;1032;-60